Aviation Digital Data Service (ADDS)

Output produced by TAFs form (0250 UTC 23 February 2017)
found at http://aviationweather.gov/adds/tafs/
 
KCNY 222339Z 2300/2324 22017G25KT P6SM SCT100 
     FM230700 27012G18KT P6SM BKN050 
     FM231700 28015G25KT P6SM BKN070